AIGUAFREDA (Vallès Oriental)





Hora UTC 07:45
Temperatura 8.5 ºC
Sòl 15 cm 8.1 ºC
Humitat 98.0 %
Pressió 1001.6 hPa
Pluja 0.2 mm
Velocitat vent 0.3 km/h
Direcció vent WSW
Radiació solar 38.2 W/m²

Dades diàries 2022-12-10



Hora UTC (hivern +1h; estiu +2h)
Temperatura (ºC) Humitat (%) Pressió (hPa) Velocitat vent (km/h) Precipitació (mm) Radiació solar (W/m²)
Hora UTC Aire Sòl 15 cm Humitat Pressió Vel. Dir. Vel. Max Dir. Intent. màx 5 min. Rad. Sol.
00:05 9.7 8.8 96.9 999.4 0.0 NNE 0.0 NNE 0.0 0.3
00:10 9.7 8.8 96.9 999.3 0.0 NNE 0.0 SW 0.0 0.3
00:15 9.7 8.7 96.8 999.3 0.0 NNE 0.0 E 0.0 1.4
00:20 9.7 8.6 96.7 999.3 0.0 NNE 0.0 SSW 0.0 1.1
00:25 9.6 8.5 96.7 999.3 0.0 NNE 0.0 SSE 0.0 2.7
00:30 9.6 8.4 96.7 999.3 0.0 NNE 0.0 SSW 0.0 2.4
00:35 9.5 8.2 96.6 999.3 0.0 NNE 0.0 SSE 0.0 2.1
00:40 9.4 8.1 96.6 999.3 0.0 NNE 0.0 SSE 0.0 2.2
00:45 9.3 8.0 96.7 999.3 0.0 NNE 0.0 SSE 0.0 1.4
00:50 9.3 8.1 96.8 999.3 0.0 NNE 0.0 SSE 0.0 1.0
00:55 9.3 8.2 96.9 999.3 0.0 NNE 0.0 ESE 0.0 0.7
01:00 9.4 8.2 96.9 999.3 0.0 NNE 0.0 ESE 0.0 0.5
01:05 9.4 8.3 96.9 999.3 0.0 NNE 0.0 ESE 0.0 0.5
01:10 9.4 8.3 96.9 999.4 0.0 NNE 0.0 ESE 0.0 0.2
01:15 9.4 8.4 97.0 999.3 0.2 NNE 6.1 N 0.0 0.6
01:20 9.4 8.5 97.0 999.4 0.0 NNE 0.0 E 0.0 0.4
01:25 9.4 8.5 97.0 999.4 0.0 NNE 0.0 SW 0.0 0.9
01:30 9.5 8.6 97.1 999.4 0.0 NNE 0.0 SSW 0.0 1.6
01:35 9.5 8.6 97.0 999.4 0.1 SSE 3.4 SSE 0.0 1.5
01:40 9.5 8.6 97.0 999.5 0.0 NNE 0.0 SSE 0.0 2.4
01:45 9.5 8.7 97.1 999.5 0.0 NNE 0.0 SSE 0.0 2.4
01:50 9.5 8.7 97.0 999.6 0.0 NNE 0.0 SSE 0.0 2.5
01:55 9.6 8.8 97.0 999.6 0.7 SE 6.1 ESE 0.0 2.6
02:00 9.6 8.8 97.0 999.6 0.4 ENE 6.1 ESE 0.0 2.5
02:05 9.6 8.8 97.0 999.7 0.2 NNE 6.1 ENE 0.0 2.6
02:10 9.6 8.8 96.9 999.7 0.0 NNE 0.0 NNE 0.0 2.6
02:15 9.6 8.8 96.9 999.7 0.0 NNE 0.0 SW 0.0 2.4
02:20 9.6 8.7 96.9 999.7 0.0 NNE 0.0 SSW 0.0 2.5
02:25 9.6 8.7 96.8 999.7 0.0 NNE 0.0 SSW 0.0 1.6
02:30 9.6 8.7 96.8 999.8 0.0 NNE 0.0 SSW 0.0 2.3
02:35 9.6 8.7 96.8 999.8 0.0 NNE 0.0 SSW 0.0 0.8
02:40 9.6 8.7 96.8 999.8 0.0 NNE 0.0 NNW 0.0 0.6
02:45 9.6 8.7 96.9 999.8 0.0 NNE 0.0 NNW 0.1 1.5
02:50 9.6 8.7 96.9 999.8 0.0 NNE 0.0 NNW 0.0 1.0
02:55 9.6 8.7 97.0 999.8 0.0 NNE 0.0 SSW 0.0 2.1
03:00 9.5 8.7 96.9 999.9 0.0 NNE 0.0 S 0.0 0.9
03:05 9.5 8.6 96.9 999.9 0.0 NNE 0.0 SE 0.0 2.4
03:10 9.4 8.5 96.9 999.8 0.0 NNE 0.0 SE 0.0 1.4
03:15 9.4 8.5 97.0 999.8 0.0 NNE 0.0 SE 0.0 0.0
03:20 9.4 8.4 97.1 999.8 0.0 NNE 0.0 SE 0.0 0.3
03:25 9.3 8.3 97.1 999.8 0.0 NNE 0.0 SE 0.0 0.0
03:30 9.3 8.3 97.2 999.9 0.0 NNE 0.0 SE 0.0 0.2
03:35 9.3 8.3 97.2 999.8 0.0 NNE 0.0 SE 0.0 1.5
03:40 9.3 8.3 97.2 999.8 0.0 NNE 0.0 SE 0.0 2.5
03:45 9.3 8.3 97.2 1000.0 0.0 NNE 0.0 SE 0.0 2.5
03:50 9.2 8.4 97.2 999.9 0.0 NNE 0.0 SE 0.0 2.5
03:55 9.2 8.4 97.2 999.9 0.0 NNE 0.0 SE 0.0 2.5
04:00 9.2 8.4 97.2 1000.0 0.0 NNE 0.0 SE 0.0 2.5
04:05 9.2 8.4 97.2 1000.0 0.0 NNE 0.0 SE 0.0 2.4
04:10 9.2 8.4 97.2 1000.1 0.0 NNE 0.0 SE 0.0 2.0
04:15 9.2 8.4 97.2 1000.2 0.0 NNE 0.0 SE 0.1 2.0
04:20 9.2 8.4 97.2 1000.1 0.0 NNE 0.0 SE 0.0 2.5
04:25 9.2 8.3 97.2 1000.1 0.0 NNE 0.0 SE 0.0 2.4
04:30 9.1 8.2 97.2 1000.1 0.0 NNE 0.0 SW 0.0 2.6
04:35 9.0 8.1 97.1 1000.1 0.0 NNE 0.0 SW 0.0 2.5
04:40 8.9 7.8 97.1 1000.1 0.0 NNE 0.0 SW 0.0 2.4
04:45 8.7 7.6 97.2 1000.2 0.0 NNE 0.0 SW 0.0 2.4
04:50 8.6 7.4 97.3 1000.1 0.0 NNE 0.0 SW 0.0 1.9
04:55 8.5 7.3 97.3 1000.2 0.0 NNE 0.0 SW 0.0 1.6
05:00 8.4 7.2 97.4 1000.2 0.0 NNE 0.0 SW 0.0 1.2
05:05 8.4 7.2 97.5 1000.2 0.0 NNE 0.0 SW 0.0 0.8
05:10 8.4 7.2 97.6 1000.2 0.0 NNE 0.0 SW 0.0 0.2
05:15 8.4 7.1 97.5 1000.2 0.0 NNE 0.0 SW 0.0 0.5
05:20 8.3 7.1 97.5 1000.2 0.0 NNE 0.0 SW 0.0 0.2
05:25 8.3 7.0 97.5 1000.3 0.0 NNE 0.0 SW 0.0 0.3
05:30 8.3 7.0 97.6 1000.3 0.0 NNE 0.0 SSW 0.0 0.1
05:35 8.2 7.0 97.6 1000.4 0.0 NNE 0.0 SSW 0.0 0.1
05:40 8.1 6.9 97.6 1000.4 0.0 NNE 0.0 SSW 0.0 0.2
05:45 8.1 6.8 97.6 1000.3 0.0 NNE 0.0 SSW 0.0 0.1
05:50 8.0 6.7 97.7 1000.5 0.0 NNE 0.0 S 0.0 0.7
05:55 8.0 6.7 97.7 1000.6 0.0 NNE 0.0 S 0.0 2.3
06:00 8.0 6.8 97.8 1000.6 0.6 W 6.1 W 0.0 2.0
06:05 8.0 6.8 97.8 1000.7 0.0 NNE 0.0 W 0.0 2.1
06:10 7.9 6.8 97.8 1000.8 0.0 W 3.4 W 0.0 2.1
06:15 7.9 6.9 97.8 1001.0 0.1 NE 3.4 NE 0.0 2.3
06:20 8.0 7.1 97.9 1001.0 0.7 SSW 6.1 SSE 0.0 2.3
06:25 8.1 7.2 98.0 1001.0 1.1 N 6.1 NNE 0.0 2.1
06:30 8.2 7.3 98.0 1001.0 0.4 ENE 3.4 NE 0.0 2.2
06:35 8.2 7.4 98.0 1001.0 0.5 W 6.1 W 0.0 2.3
06:40 8.2 7.4 97.9 1001.2 0.1 W 6.1 W 0.0 2.0
06:45 8.2 7.4 97.8 1001.3 0.6 W 6.1 W 0.0 2.3
06:50 8.2 7.4 97.8 1001.3 0.0 NNE 0.0 W 0.0 2.5
06:55 8.2 7.4 97.9 1001.3 0.0 NNE 0.0 W 0.0 2.9
07:00 8.2 7.4 97.9 1001.2 0.0 NNE 0.0 W 0.0 3.5
07:05 8.2 7.4 97.9 1001.4 0.0 NNE 0.0 W 0.0 4.3
07:10 8.2 7.3 97.9 1001.3 0.1 NE 3.4 NE 0.0 5.5
07:15 8.2 7.3 97.9 1001.3 0.1 NE 3.4 NE 0.0 7.0
07:20 8.2 7.3 98.0 1001.3 0.4 WNW 3.4 W 0.0 8.5
07:25 8.2 7.4 98.0 1001.5 0.0 NNE 0.0 WNW 0.0 14.0
07:30 8.3 7.6 98.0 1001.6 0.0 NNE 0.0 WNW 0.0 14.1
07:35 8.4 7.7 98.1 1001.6 0.6 NE 3.4 E 0.0 15.5
07:40 8.4 7.9 98.0 1001.6 0.0 NNE 0.0 NE 0.0 35.9
07:45 8.5 8.1 98.0 1001.6 0.3 WSW 6.1 WSW 0.0 38.2
Màxima 9.8 8.8 98.1 1001.6 1.1 N 6.1 WSW 0.1 38.2
Mínima 7.9 6.7 96.6 999.3
Total 0.2